.
WxDataArchive / Data Records for 2007-07-30
2007-07-29 July 2007 2007-07-31

Data Records for Monday, 30 July 2007

Time	Temp	Chill	HIndex	Humid	Dewpt	 Wind 	HiWind	WindDir	Rain 	Barom 
-----	----	-----	------	-----	-----	------	------	-------	-----	----- 
00:00	68.3	68.3	68.3	83	62.9	0	0	---	0.00	29.921 
00:05	68.1	68.1	68.1	84	63.1	0	0	---	0.00	29.922 
00:10	67.9	67.9	67.9	85	63.2	0	0	---	0.00	29.923 
00:15	67.8	67.8	67.8	86	63.5	0	0	---	0.00	29.924 
00:20	67.6	67.6	67.6	86	63.3	0	0	---	0.00	29.926 
00:25	67.4	67.4	67.4	87	63.4	0	0	---	0.00	29.927 
00:30	67.3	67.3	67.3	87	63.3	0	0	---	0.00	29.928 
00:35	67.3	67.3	67.3	87	63.3	0	0	---	0.00	29.930 
00:40	67.1	67.1	67.1	88	63.4	0	0	---	0.00	29.932 
00:45	67.1	67.1	67.1	88	63.4	0	0	---	0.00	29.932 
00:50	67.1	67.1	67.1	87	63.1	0	0	---	0.00	29.932 
00:55	67.1	67.1	67.1	87	63.1	0	1	90	0.00	29.932 
01:00	66.9	66.9	66.9	87	62.9	0	0	---	0.00	29.933 
01:05	66.9	66.9	66.9	87	62.9	0	0	---	0.00	29.931 
01:10	66.9	66.9	66.9	87	62.9	0	0	---	0.00	29.933 
01:15	66.9	66.9	66.9	87	62.9	0	0	---	0.00	29.934 
01:20	66.9	66.9	66.9	87	62.9	0	0	---	0.00	29.934 
01:25	66.9	66.9	66.9	88	63.2	0	0	---	0.00	29.936 
01:30	66.9	66.9	66.9	88	63.2	0	0	---	0.00	29.935 
01:35	66.9	66.9	66.9	88	63.2	0	0	---	0.00	29.934 
01:40	66.9	66.9	66.9	88	63.2	0	1	90	0.00	29.932 
01:45	66.9	66.9	66.9	88	63.2	0	0	---	0.00	29.933 
01:50	66.8	66.8	66.8	88	63.1	0	0	---	0.00	29.934 
01:55	66.8	66.8	66.8	88	63.1	0	0	---	0.00	29.935 
02:00	66.8	66.8	66.8	88	63.1	0	0	---	0.00	29.935 
02:05	66.6	66.6	66.6	88	62.9	0	0	---	0.00	29.932 
02:10	66.6	66.6	66.6	88	62.9	0	0	---	0.00	29.929 
02:15	66.4	66.4	66.4	88	62.7	0	0	---	0.00	29.928 
02:20	66.4	66.4	66.4	88	62.7	0	0	---	0.00	29.928 
02:25	66.3	66.3	66.3	88	62.6	0	0	---	0.00	29.928 
02:30	66.3	66.3	66.3	88	62.6	0	0	---	0.00	29.926 
02:35	66.1	66.1	66.1	89	62.8	0	0	---	0.00	29.925 
02:40	66.1	66.1	66.1	89	62.8	0	0	---	0.00	29.925 
02:45	66.1	66.1	66.1	89	62.8	0	0	---	0.00	29.928 
02:50	66.1	66.1	66.1	89	62.8	0	0	---	0.00	29.926 
02:55	66.0	66.0	66.0	89	62.7	0	0	---	0.00	29.923 
03:00	66.0	66.0	66.0	89	62.7	0	0	---	0.00	29.923 
03:05	66.0	66.0	66.0	89	62.7	0	0	---	0.00	29.922 
03:10	65.8	65.8	65.8	89	62.5	0	0	---	0.00	29.921 
03:15	65.8	65.8	65.8	89	62.5	0	0	---	0.00	29.922 
03:20	65.6	65.6	65.6	89	62.3	0	0	---	0.00	29.919 
03:25	65.6	65.6	65.6	89	62.3	0	0	---	0.00	29.921 
03:30	65.6	65.6	65.6	89	62.3	0	0	---	0.00	29.921 
03:35	65.5	65.5	65.5	89	62.2	0	0	---	0.00	29.920 
03:40	65.3	65.3	65.3	88	61.6	0	0	---	0.00	29.922 
03:45	65.3	65.3	65.3	88	61.6	0	0	---	0.00	29.921 
03:50	65.2	65.2	65.2	88	61.6	0	0	---	0.00	29.921 
03:55	65.0	65.0	65.0	88	61.4	0	0	---	0.00	29.917 
04:00	65.0	65.0	65.0	88	61.4	0	0	---	0.00	29.919 
04:05	64.8	64.8	64.8	88	61.2	0	0	---	0.00	29.919 
04:10	64.7	64.7	64.7	88	61.1	0	0	---	0.00	29.919 
04:15	64.5	64.5	64.5	88	60.9	0	0	---	0.00	29.921 
04:20	64.3	64.3	64.3	88	60.7	0	0	---	0.00	29.920 
04:25	64.2	64.2	64.2	88	60.6	0	0	---	0.00	29.921 
04:30	64.2	64.2	64.2	88	60.6	0	0	---	0.00	29.922 
04:35	64.0	64.0	64.0	88	60.4	0	0	---	0.00	29.923 
04:40	63.9	63.9	63.9	89	60.6	0	0	---	0.00	29.921 
04:45	63.9	63.9	63.9	89	60.6	0	0	---	0.00	29.923 
04:50	63.7	63.7	63.7	89	60.4	0	0	---	0.00	29.923 
04:55	63.7	63.7	63.7	90	60.7	0	0	---	0.00	29.923 
05:00	63.7	63.7	63.7	90	60.7	0	0	---	0.00	29.924 
05:05	63.5	63.5	63.5	90	60.5	0	0	---	0.00	29.927 
05:10	63.5	63.5	63.5	90	60.5	0	0	---	0.00	29.927 
05:15	63.4	63.4	63.4	90	60.4	0	0	---	0.00	29.932 
05:20	63.4	63.4	63.4	90	60.4	0	0	---	0.00	29.932 
05:25	63.4	63.4	63.4	90	60.4	0	0	---	0.00	29.935 
05:30	63.2	63.2	63.2	90	60.2	0	0	---	0.00	29.939 
05:35	63.2	63.2	63.2	90	60.2	0	0	---	0.00	29.940 
05:40	63.2	63.2	63.2	90	60.2	0	0	---	0.00	29.941 
05:45	63.1	63.1	63.1	90	60.1	0	0	---	0.00	29.942 
05:50	63.1	63.1	63.1	91	60.4	0	0	---	0.00	29.941 
05:55	63.1	63.1	63.1	91	60.4	0	0	---	0.00	29.942 
06:00	63.1	63.1	63.1	91	60.4	0	0	---	0.00	29.944 
06:05	63.1	63.1	63.1	91	60.4	0	0	---	0.00	29.945 
06:10	63.1	63.1	63.1	91	60.4	0	0	---	0.00	29.946 
06:15	63.2	63.2	63.2	92	60.8	0	0	---	0.00	29.947 
06:20	63.2	63.2	63.2	92	60.8	0	0	---	0.00	29.946 
06:25	63.5	63.5	63.5	92	61.1	0	0	---	0.00	29.949 
06:30	63.9	63.9	63.9	92	61.5	0	0	---	0.00	29.946 
06:35	64.2	64.2	64.2	92	61.8	0	0	---	0.00	29.946 
06:40	64.8	64.8	64.8	91	62.1	0	0	---	0.00	29.949 
06:45	65.6	65.6	65.6	89	62.3	0	1	90	0.00	29.948 
06:50	66.4	66.4	66.4	87	62.4	0	0	---	0.00	29.953 
06:55	67.3	67.3	67.3	85	62.6	0	1	90	0.00	29.953 
07:00	67.9	67.9	67.9	83	62.5	0	0	---	0.00	29.952 
07:05	68.8	68.8	68.8	80	62.4	0	1	90	0.00	29.954 
07:10	69.6	69.6	69.6	79	62.8	0	2	90	0.00	29.955 
07:15	70.4	70.4	70.4	77	62.8	0	2	90	0.00	29.956 
07:20	71.1	71.1	71.1	74	62.4	0	2	90	0.00	29.955 
07:25	71.6	71.6	71.6	73	62.5	0	2	90	0.00	29.956 
07:30	72.5	72.5	72.5	70	62.1	0	4	90	0.00	29.957 
07:35	72.8	72.8	72.8	69	62.0	0	4	90	0.00	29.956 
07:40	73.5	73.5	73.5	68	62.3	0	3	135	0.00	29.957 
07:45	74.0	74.0	74.0	67	62.3	1	4	90	0.00	29.956 
07:50	74.2	74.2	74.2	68	62.9	1	3	90	0.00	29.955 
07:55	74.6	74.6	74.6	69	63.7	1	4	135	0.00	29.955 
08:00	74.7	74.7	74.7	68	63.4	1	4	135	0.00	29.956 
08:05	75.3	75.3	77.0	69	64.4	0	2	135	0.00	29.956 
08:10	75.6	75.6	77.5	66	63.4	1	3	135	0.00	29.959 
08:15	75.8	75.8	77.6	67	64.0	1	4	90	0.00	29.956 
08:20	76.3	76.3	78.0	68	64.9	0	2	90	0.00	29.955 
08:25	76.8	76.8	78.6	65	64.1	0	2	90	0.00	29.956 
08:30	77.0	77.0	78.8	64	63.9	0	1	112	0.00	29.958 
08:35	77.2	77.2	79.0	61	62.7	2	7	112	0.00	29.960 
08:40	77.0	77.0	78.8	63	63.4	2	5	90	0.00	29.960 
08:45	77.2	77.2	79.0	61	62.7	2	5	112	0.00	29.961 
08:50	77.4	77.4	79.1	61	62.9	2	5	112	0.00	29.960 
08:55	77.7	77.7	79.4	59	62.2	1	4	112	0.00	29.958 
09:00	77.7	77.7	79.4	60	62.7	0	3	270	0.00	29.960 
09:05	78.5	78.5	80.0	58	62.5	1	4	112	0.00	29.961 
09:10	79.0	79.0	80.4	56	61.9	0	4	158	0.00	29.958 
09:15	79.2	79.2	80.5	55	61.6	1	3	90	0.00	29.958 
09:20	79.4	79.4	80.8	56	62.3	0	2	90	0.00	29.960 
09:25	79.6	79.6	80.5	51	59.9	0	3	90	0.00	29.961 
09:30	79.9	79.9	80.8	51	60.1	2	4	112	0.00	29.960 
09:35	80.3	80.3	81.1	50	59.9	1	4	135	0.00	29.962 
09:40	80.9	80.9	81.5	49	59.9	2	4	112	0.00	29.960 
09:45	81.2	81.2	81.8	49	60.2	1	4	90	0.00	29.959 
09:50	81.6	81.6	82.2	49	60.6	1	3	90	0.00	29.963 
09:55	81.6	81.6	82.1	48	60.0	1	5	112	0.00	29.964 
10:00	81.8	81.8	82.4	49	60.7	0	2	90	0.00	29.964 
10:05	82.2	82.2	82.1	44	58.1	2	5	90	0.00	29.967 
10:10	82.2	82.2	82.0	43	57.4	3	6	112	0.00	29.967 
10:15	82.2	82.2	83.1	51	62.2	1	4	135	0.00	29.967 
10:20	82.6	82.6	82.5	44	58.4	2	6	112	0.00	29.968 
10:25	82.8	82.8	83.0	46	59.9	1	4	68	0.00	29.968 
10:30	83.0	83.0	83.2	46	60.1	2	6	112	0.00	29.968 
10:35	83.2	83.2	82.7	41	57.0	2	6	135	0.00	29.968 
10:40	83.8	83.8	83.9	45	60.2	1	4	90	0.00	29.966 
10:45	83.8	83.8	83.7	44	59.5	2	7	90	0.00	29.967 
10:50	84.0	84.0	83.6	42	58.4	2	7	68	0.00	29.968 
10:55	84.0	84.0	83.4	41	57.7	3	10	112	0.00	29.968 
11:00	84.1	84.1	83.4	40	57.1	2	5	90	0.00	29.968 
11:05	84.3	84.3	83.6	40	57.3	2	7	112	0.00	29.971 
11:10	84.0	84.0	83.4	41	57.7	3	8	112	0.00	29.971 
11:15	84.0	84.0	84.3	46	61.0	3	11	90	0.00	29.972 
11:20	84.1	84.1	83.6	41	57.8	3	6	90	0.00	29.974 
11:25	84.0	84.0	83.0	38	55.6	4	7	112	0.00	29.971 
11:30	84.1	84.1	83.1	38	55.7	3	6	90	0.00	29.974 
11:35	84.3	84.3	83.4	39	56.6	2	9	112	0.00	29.975 
11:40	84.7	84.7	84.0	40	57.7	2	10	112	0.00	29.973 
11:45	84.7	84.7	83.5	37	55.5	3	11	90	0.00	29.979 
11:50	84.7	84.7	84.2	41	58.4	3	6	112	0.00	29.979 
11:55	84.5	84.5	83.2	36	54.6	3	7	90	0.00	29.981 
12:00	84.5	84.5	84.0	41	58.2	2	6	112	0.00	29.979 
12:05	84.5	84.5	83.8	40	57.5	3	11	90	0.00	29.981 
12:10	84.0	84.0	84.3	46	61.0	3	6	90	0.00	29.983 
12:15	84.3	84.3	83.9	42	58.7	1	5	112	0.00	29.981 
12:20	84.9	84.9	84.8	43	59.9	2	7	90	0.00	29.979 
12:25	84.7	84.7	83.5	37	55.5	4	10	112	0.00	29.974 
12:30	84.9	84.9	83.6	36	54.9	2	9	112	0.00	29.977 
12:35	84.9	84.9	83.4	35	54.2	3	6	90	0.00	29.979 
12:40	84.7	84.7	84.4	42	59.0	3	7	112	0.00	29.976 
12:45	84.7	84.7	83.4	36	54.8	3	7	90	0.00	29.976 
12:50	84.5	84.5	83.6	39	56.8	4	7	112	0.00	29.974 
12:55	84.3	84.3	83.8	41	58.0	3	7	90	0.00	29.975 
13:00	84.5	84.5	84.1	42	58.9	2	6	112	0.00	29.971 
13:05	84.9	84.9	83.9	38	56.4	2	7	68	0.00	29.970 
13:10	84.7	84.7	83.8	39	57.0	2	11	112	0.00	29.969 
13:15	84.9	84.9	85.2	45	61.2	2	9	90	0.00	29.969 
13:20	85.3	85.3	84.8	41	58.9	1	4	68	0.00	29.968 
13:25	85.7	85.7	85.5	42	59.9	2	4	112	0.00	29.968 
13:30	85.3	85.3	84.5	39	57.5	3	10	90	0.00	29.969 
13:35	85.1	85.1	83.9	37	55.9	3	10	90	0.00	29.970 
13:40	85.1	85.1	83.9	37	55.9	1	5	112	0.00	29.968 
13:45	85.5	85.5	84.3	37	56.2	3	7	68	0.00	29.967 
13:50	85.1	85.1	84.3	39	57.3	3	8	90	0.00	29.967 
13:55	85.1	85.1	84.3	39	57.3	2	6	90	0.00	29.966 
14:00	85.1	85.1	84.1	38	56.6	4	8	90	0.00	29.967 
14:05	85.1	85.1	84.4	40	58.0	2	4	112	0.00	29.965 
14:10	85.3	85.3	84.5	39	57.5	3	5	90	0.00	29.965 
14:15	85.5	85.5	85.1	41	59.1	3	7	90	0.00	29.959 
14:20	85.9	85.9	85.7	42	60.1	2	5	90	0.00	29.963 
14:25	86.5	86.5	86.5	42	60.6	2	4	90	0.00	29.962 
14:30	85.9	85.9	84.7	37	56.6	3	7	90	0.00	29.963 
14:35	85.7	85.7	84.9	39	57.9	2	5	90	0.00	29.960 
14:40	85.5	85.5	84.2	36	55.5	2	5	90	0.00	29.958 
14:45	85.7	85.7	84.9	39	57.9	1	5	90	0.00	29.956 
14:50	85.7	85.7	85.1	40	58.6	4	10	90	0.00	29.957 
14:55	85.7	85.7	84.5	37	56.4	3	6	90	0.00	29.956 
15:00	85.5	85.5	84.3	37	56.2	3	6	90	0.00	29.953 
15:05	85.9	85.9	85.1	39	58.0	2	5	90	0.00	29.954 
15:10	85.9	85.9	84.6	36	55.8	3	7	90	0.00	29.954 
15:15	85.9	85.9	84.7	37	56.6	3	6	112	0.00	29.954 
15:20	85.9	85.9	85.1	39	58.0	2	5	112	0.00	29.953 
15:25	85.7	85.7	84.7	38	57.1	2	6	112	0.00	29.954 
15:30	85.9	85.9	84.9	38	57.3	2	5	90	0.00	29.954 
15:35	85.9	85.9	85.7	42	60.1	2	5	90	0.00	29.953 
15:40	85.9	85.9	85.1	39	58.0	1	4	90	0.00	29.952 
15:45	85.9	85.9	84.4	35	55.0	2	7	90	0.00	29.949 
15:50	85.9	85.9	84.7	37	56.6	3	6	90	0.00	29.948 
15:55	85.9	85.9	84.7	37	56.6	2	5	90	0.00	29.947 
16:00	85.7	85.7	84.4	36	55.6	3	6	112	0.00	29.947 
16:05	85.9	85.9	84.7	37	56.6	2	6	112	0.00	29.947 
16:10	85.9	85.9	84.6	36	55.8	1	4	45	0.00	29.946 
16:15	85.9	85.9	84.4	35	55.0	3	6	90	0.00	29.946 
16:20	85.9	85.9	84.7	37	56.6	1	5	90	0.00	29.943 
16:25	85.7	85.7	84.2	35	54.9	2	4	90	0.00	29.942 
16:30	85.3	85.3	84.1	37	56.0	3	7	90	0.00	29.944 
16:35	85.1	85.1	84.3	39	57.3	2	3	90	0.00	29.943 
16:40	85.1	85.1	84.3	39	57.3	3	5	90	0.00	29.943 
16:45	84.9	84.9	84.0	39	57.1	2	6	112	0.00	29.942 
16:50	85.1	85.1	84.3	39	57.3	2	4	90	0.00	29.941 
16:55	84.9	84.9	83.9	38	56.4	3	6	90	0.00	29.940 
17:00	84.9	84.9	83.9	38	56.4	2	4	90	0.00	29.940 
17:05	84.7	84.7	83.4	36	54.8	2	6	90	0.00	29.940 
17:10	84.5	84.5	83.6	39	56.8	1	3	90	0.00	29.939 
17:15	84.3	84.3	83.4	39	56.6	2	4	112	0.00	29.940 
17:20	84.3	84.3	83.6	40	57.3	1	4	90	0.00	29.939 
17:25	84.1	84.1	82.9	37	55.0	3	6	90	0.00	29.939 
17:30	84.0	84.0	83.3	40	57.0	2	5	90	0.00	29.937 
17:35	83.8	83.8	82.9	39	56.2	3	5	90	0.00	29.937 
17:40	83.8	83.8	83.2	41	57.6	2	4	90	0.00	29.934 
17:45	83.8	83.8	83.1	40	56.9	2	6	90	0.00	29.932 
17:50	83.6	83.6	82.8	39	56.0	2	5	112	0.00	29.933 
17:55	83.6	83.6	82.8	39	56.0	1	4	90	0.00	29.932 
18:00	83.4	83.4	82.9	41	57.2	1	5	90	0.00	29.930 
18:05	83.4	83.4	82.7	40	56.5	1	5	90	0.00	29.926 
18:10	83.2	83.2	82.5	40	56.3	1	4	90	0.00	29.925 
18:15	83.0	83.0	82.2	39	55.5	2	5	112	0.00	29.925 
18:20	82.8	82.8	82.3	41	56.7	2	4	68	0.00	29.926 
18:25	82.6	82.6	82.2	42	57.2	1	3	90	0.00	29.927 
18:30	82.4	82.4	82.0	42	57.0	1	4	90	0.00	29.929 
18:35	82.2	82.2	81.7	41	56.1	1	3	90	0.00	29.929 
18:40	82.0	82.0	81.7	42	56.6	1	4	90	0.00	29.930 
18:45	82.0	82.0	81.7	42	56.6	1	4	90	0.00	29.932 
18:50	81.8	81.8	81.6	43	57.1	0	2	90	0.00	29.934 
18:55	81.6	81.6	81.5	43	56.9	1	4	90	0.00	29.935 
19:00	81.6	81.6	81.8	46	58.8	1	3	90	0.00	29.936 
19:05	81.4	81.4	81.5	45	58.0	0	2	90	0.00	29.932 
19:10	81.2	81.2	81.6	47	59.0	0	2	90	0.00	29.931 
19:15	80.9	80.9	81.2	46	58.2	0	1	90	0.00	29.932 
19:20	80.5	80.5	80.8	46	57.8	0	2	90	0.00	29.933 
19:25	80.1	80.1	80.8	49	59.2	0	1	90	0.00	29.935 
19:30	79.8	79.8	80.6	50	59.5	0	0	---	0.00	29.935 
19:35	79.2	79.2	80.1	50	58.9	0	0	---	0.00	29.935 
19:40	78.8	78.8	79.8	50	58.6	0	0	---	0.00	29.934 
19:45	78.3	78.3	79.4	50	58.1	0	0	---	0.00	29.934 
19:50	77.9	77.9	79.2	51	58.3	0	0	---	0.00	29.937 
19:55	77.6	77.6	79.0	51	58.0	0	0	---	0.00	29.937 
20:00	77.2	77.2	78.8	52	58.2	0	0	---	0.00	29.937 
20:05	76.7	76.7	78.5	53	58.3	0	0	---	0.00	29.938 
20:10	76.5	76.5	78.4	54	58.6	0	0	---	0.00	29.937 
20:15	76.1	76.1	78.1	54	58.2	0	0	---	0.00	29.937 
20:20	75.6	75.6	77.8	55	58.3	0	0	---	0.00	29.937 
20:25	75.3	75.3	77.6	58	59.5	0	0	---	0.00	29.939 
20:30	74.9	74.9	74.9	59	59.6	0	0	---	0.00	29.940 
20:35	74.6	74.6	74.6	59	59.3	0	0	---	0.00	29.940 
20:40	74.0	74.0	74.0	60	59.2	0	0	---	0.00	29.943 
20:45	73.7	73.7	73.7	62	59.9	0	0	---	0.00	29.946 
20:50	73.3	73.3	73.3	63	59.9	0	0	---	0.00	29.949 
20:55	73.0	73.0	73.0	64	60.1	0	0	---	0.00	29.952 
21:00	72.8	72.8	72.8	65	60.3	0	0	---	0.00	29.954 
21:05	72.5	72.5	72.5	66	60.5	0	0	---	0.00	29.951 
21:10	72.1	72.1	72.1	67	60.5	0	0	---	0.00	29.952 
21:15	72.0	72.0	72.0	67	60.4	0	0	---	0.00	29.954 
21:20	71.6	71.6	71.6	68	60.5	0	0	---	0.00	29.955 
21:25	71.5	71.5	71.5	69	60.8	0	0	---	0.00	29.955 
21:30	71.3	71.3	71.3	69	60.6	0	0	---	0.00	29.959 
21:35	70.9	70.9	70.9	70	60.6	0	0	---	0.00	29.963 
21:40	70.8	70.8	70.8	70	60.5	0	0	---	0.00	29.961 
21:45	70.6	70.6	70.6	71	60.7	0	0	---	0.00	29.961 
21:50	70.4	70.4	70.4	71	60.5	0	0	---	0.00	29.963 
21:55	70.1	70.1	70.1	73	61.0	0	0	---	0.00	29.964 
22:00	69.8	69.8	69.8	73	60.7	0	0	---	0.00	29.966 
22:05	69.6	69.6	69.6	74	60.9	0	0	---	0.00	29.964 
22:10	69.4	69.4	69.4	74	60.7	0	0	---	0.00	29.966 
22:15	69.1	69.1	69.1	75	60.8	0	0	---	0.00	29.966 
22:20	69.1	69.1	69.1	76	61.2	0	0	---	0.00	29.966 
22:25	68.9	68.9	68.9	76	61.0	0	0	---	0.00	29.966 
22:30	68.8	68.8	68.8	77	61.3	0	0	---	0.00	29.966 
22:35	68.6	68.6	68.6	76	60.7	0	0	---	0.00	29.965 
22:40	68.4	68.4	68.4	76	60.5	0	0	---	0.00	29.965 
22:45	68.3	68.3	68.3	77	60.8	0	0	---	0.00	29.965 
22:50	68.1	68.1	68.1	77	60.6	0	0	---	0.00	29.965 
22:55	67.9	67.9	67.9	78	60.8	0	0	---	0.00	29.965 
23:00	67.8	67.8	67.8	79	61.0	0	0	---	0.00	29.967 
23:05	67.6	67.6	67.6	79	60.8	0	0	---	0.00	29.967 
23:10	67.4	67.4	67.4	80	61.0	0	0	---	0.00	29.967 
23:15	67.3	67.3	67.3	81	61.3	0	0	---	0.00	29.968 
23:20	67.1	67.1	67.1	81	61.1	0	0	---	0.00	29.968 
23:25	66.9	66.9	66.9	81	60.9	0	0	---	0.00	29.971 
23:30	66.8	66.8	66.8	81	60.8	0	0	---	0.00	29.973 
23:35	66.6	66.6	66.6	82	60.9	0	0	---	0.00	29.976 
23:40	66.6	66.6	66.6	81	60.6	0	0	---	0.00	29.974 
23:45	66.4	66.4	66.4	82	60.7	0	0	---	0.00	29.978 
23:50	66.3	66.3	66.3	82	60.6	0	0	---	0.00	29.978 
23:55	66.1	66.1	66.1	82	60.4	0	0	---	0.00	29.980 

CoCoRaHS
IN-AL-39
A2 Web Hosting
Creative Commons License
GoDaddy
Look for:

loaded 2017-12-13 10:03:14 • last modified 2010-11-18 10:43:29
Privacy PolicyDisclaimer
• wx.awcolley.com is powered by PmWiki v.2002016 •
• all content (unless otherwise noted) © 2017 A W Colley